sensor_id;sensor_type;location;lat;lon;timestamp;P1;durP1;ratioP1;P2;durP2;ratioP2
5630;SDS011;2837;50.990;7.124;2023-02-18T06:01:40;151.63;;;6.20;;
5630;SDS011;2837;50.990;7.124;2023-02-18T06:04:06;152.57;;;6.50;;
5630;SDS011;2837;50.990;7.124;2023-02-18T06:06:32;151.27;;;6.40;;
5630;SDS011;2837;50.990;7.124;2023-02-18T06:08:59;151.87;;;6.40;;
5630;SDS011;2837;50.990;7.124;2023-02-18T06:11:24;151.80;;;6.50;;
5630;SDS011;2837;50.990;7.124;2023-02-18T06:13:50;151.63;;;6.10;;
5630;SDS011;2837;50.990;7.124;2023-02-18T06:16:15;152.17;;;6.80;;
5630;SDS011;2837;50.990;7.124;2023-02-18T06:18:41;152.00;;;6.23;;
5630;SDS011;2837;50.990;7.124;2023-02-18T06:21:06;151.67;;;6.60;;
5630;SDS011;2837;50.990;7.124;2023-02-18T06:23:32;151.47;;;6.40;;
5630;SDS011;2837;50.990;7.124;2023-02-18T06:25:57;152.93;;;6.80;;
5630;SDS011;2837;50.990;7.124;2023-02-18T06:28:23;151.07;;;6.20;;
5630;SDS011;2837;50.990;7.124;2023-02-18T06:30:49;152.50;;;6.63;;
5630;SDS011;2837;50.990;7.124;2023-02-18T06:33:14;152.43;;;6.80;;
5630;SDS011;2837;50.990;7.124;2023-02-18T06:35:40;151.63;;;6.30;;
5630;SDS011;2837;50.990;7.124;2023-02-18T06:38:05;152.17;;;6.30;;
5630;SDS011;2837;50.990;7.124;2023-02-18T06:40:31;151.37;;;6.20;;
5630;SDS011;2837;50.990;7.124;2023-02-18T06:42:57;151.07;;;6.40;;
5630;SDS011;2837;50.990;7.124;2023-02-18T06:45:22;151.80;;;6.30;;
5630;SDS011;2837;50.990;7.124;2023-02-18T06:47:48;150.90;;;5.90;;
5630;SDS011;2837;50.990;7.124;2023-02-18T06:50:13;151.87;;;6.90;;
5630;SDS011;2837;50.990;7.124;2023-02-18T06:52:39;151.77;;;6.13;;
5630;SDS011;2837;50.990;7.124;2023-02-18T06:55:05;152.17;;;6.53;;
5630;SDS011;2837;50.990;7.124;2023-02-18T06:57:33;151.83;;;6.20;;
5630;SDS011;2837;50.990;7.124;2023-02-18T06:59:59;151.80;;;6.67;;
5630;SDS011;2837;50.990;7.124;2023-02-18T07:02:25;155.17;;;6.60;;
5630;SDS011;2837;50.990;7.124;2023-02-18T07:04:51;151.70;;;6.43;;
5630;SDS011;2837;50.990;7.124;2023-02-18T07:07:17;151.77;;;6.10;;
5630;SDS011;2837;50.990;7.124;2023-02-18T07:09:42;152.07;;;6.60;;
5630;SDS011;2837;50.990;7.124;2023-02-18T07:12:08;151.47;;;6.20;;
5630;SDS011;2837;50.990;7.124;2023-02-18T07:14:33;151.17;;;6.40;;
5630;SDS011;2837;50.990;7.124;2023-02-18T07:16:59;151.40;;;6.53;;
5630;SDS011;2837;50.990;7.124;2023-02-18T07:19:24;151.47;;;5.90;;
5630;SDS011;2837;50.990;7.124;2023-02-18T07:21:50;150.90;;;6.43;;
5630;SDS011;2837;50.990;7.124;2023-02-18T07:24:16;150.97;;;6.03;;
5630;SDS011;2837;50.990;7.124;2023-02-18T07:26:41;150.80;;;5.97;;
5630;SDS011;2837;50.990;7.124;2023-02-18T07:29:07;151.57;;;6.40;;
5630;SDS011;2837;50.990;7.124;2023-02-18T07:31:33;151.17;;;5.70;;
5630;SDS011;2837;50.990;7.124;2023-02-18T07:33:58;151.47;;;6.30;;
5630;SDS011;2837;50.990;7.124;2023-02-18T07:36:24;151.60;;;6.90;;
5630;SDS011;2837;50.990;7.124;2023-02-18T07:38:50;151.37;;;6.40;;
5630;SDS011;2837;50.990;7.124;2023-02-18T07:41:18;151.50;;;6.40;;
5630;SDS011;2837;50.990;7.124;2023-02-18T07:43:45;151.23;;;6.73;;
5630;SDS011;2837;50.990;7.124;2023-02-18T07:46:11;150.90;;;5.93;;
5630;SDS011;2837;50.990;7.124;2023-02-18T07:48:37;151.17;;;6.20;;
5630;SDS011;2837;50.990;7.124;2023-02-18T07:51:09;151.60;;;6.20;;
5630;SDS011;2837;50.990;7.124;2023-02-18T07:53:35;150.97;;;6.40;;
5630;SDS011;2837;50.990;7.124;2023-02-18T07:56:01;152.47;;;7.17;;
5630;SDS011;2837;50.990;7.124;2023-02-18T07:58:28;151.17;;;6.47;;
5630;SDS011;2837;50.990;7.124;2023-02-18T08:00:56;150.77;;;6.10;;
5630;SDS011;2837;50.990;7.124;2023-02-18T08:03:23;151.43;;;6.30;;
5630;SDS011;2837;50.990;7.124;2023-02-18T08:05:53;151.67;;;6.57;;
5630;SDS011;2837;50.990;7.124;2023-02-18T08:08:23;153.25;;;6.70;;
5630;SDS011;2837;50.990;7.124;2023-02-18T08:10:50;152.67;;;6.93;;
5630;SDS011;2837;50.990;7.124;2023-02-18T08:13:19;151.87;;;6.83;;
5630;SDS011;2837;50.990;7.124;2023-02-18T08:15:45;151.83;;;6.70;;
5630;SDS011;2837;50.990;7.124;2023-02-18T08:18:16;151.37;;;6.33;;
5630;SDS011;2837;50.990;7.124;2023-02-18T08:20:43;152.47;;;6.67;;
5630;SDS011;2837;50.990;7.124;2023-02-18T08:23:11;152.00;;;6.40;;
5630;SDS011;2837;50.990;7.124;2023-02-18T08:25:37;152.10;;;7.13;;
5630;SDS011;2837;50.990;7.124;2023-02-18T08:28:03;153.07;;;6.87;;
5630;SDS011;2837;50.990;7.124;2023-02-18T08:30:29;152.97;;;6.97;;
5630;SDS011;2837;50.990;7.124;2023-02-18T08:32:54;152.17;;;6.40;;
5630;SDS011;2837;50.990;7.124;2023-02-18T08:35:20;155.53;;;7.10;;
5630;SDS011;2837;50.990;7.124;2023-02-18T08:37:46;152.27;;;7.00;;
5630;SDS011;2837;50.990;7.124;2023-02-18T08:40:11;154.17;;;7.20;;
5630;SDS011;2837;50.990;7.124;2023-02-18T08:42:38;151.83;;;6.00;;
5630;SDS011;2837;50.990;7.124;2023-02-18T08:45:04;155.37;;;8.10;;
5630;SDS011;2837;50.990;7.124;2023-02-18T08:47:30;152.43;;;7.00;;
5630;SDS011;2837;50.990;7.124;2023-02-18T08:49:56;154.77;;;6.90;;
5630;SDS011;2837;50.990;7.124;2023-02-18T08:52:21;154.40;;;6.80;;
5630;SDS011;2837;50.990;7.124;2023-02-18T08:54:47;152.27;;;6.83;;
5630;SDS011;2837;50.990;7.124;2023-02-18T08:57:13;155.23;;;7.53;;
5630;SDS011;2837;50.990;7.124;2023-02-18T08:59:39;153.23;;;6.40;;
5630;SDS011;2837;50.990;7.124;2023-02-18T09:02:04;152.77;;;6.50;;
5630;SDS011;2837;50.990;7.124;2023-02-18T09:04:31;153.97;;;7.00;;
5630;SDS011;2837;50.990;7.124;2023-02-18T09:06:57;153.43;;;7.20;;
5630;SDS011;2837;50.990;7.124;2023-02-18T09:09:22;153.10;;;6.70;;
5630;SDS011;2837;50.990;7.124;2023-02-18T09:11:48;154.07;;;6.90;;
5630;SDS011;2837;50.990;7.124;2023-02-18T09:14:14;154.10;;;7.30;;
5630;SDS011;2837;50.990;7.124;2023-02-18T09:16:40;154.27;;;7.03;;
5630;SDS011;2837;50.990;7.124;2023-02-18T09:19:06;152.77;;;6.53;;
5630;SDS011;2837;50.990;7.124;2023-02-18T09:21:32;164.37;;;6.87;;
5630;SDS011;2837;50.990;7.124;2023-02-18T09:23:57;153.93;;;7.87;;
5630;SDS011;2837;50.990;7.124;2023-02-18T09:26:24;154.03;;;6.50;;
5630;SDS011;2837;50.990;7.124;2023-02-18T09:28:51;155.47;;;6.97;;
5630;SDS011;2837;50.990;7.124;2023-02-18T09:31:20;153.63;;;6.87;;
5630;SDS011;2837;50.990;7.124;2023-02-18T09:33:48;152.30;;;6.27;;
5630;SDS011;2837;50.990;7.124;2023-02-18T09:36:16;153.27;;;6.60;;
5630;SDS011;2837;50.990;7.124;2023-02-18T09:38:42;155.13;;;7.70;;
5630;SDS011;2837;50.990;7.124;2023-02-18T09:41:13;152.00;;;7.23;;
5630;SDS011;2837;50.990;7.124;2023-02-18T09:43:47;156.17;;;7.27;;
5630;SDS011;2837;50.990;7.124;2023-02-18T09:46:23;160.80;;;7.20;;
5630;SDS011;2837;50.990;7.124;2023-02-18T09:48:53;154.47;;;7.10;;
5630;SDS011;2837;50.990;7.124;2023-02-18T09:51:19;154.13;;;7.20;;
5630;SDS011;2837;50.990;7.124;2023-02-18T09:53:45;152.60;;;7.40;;
5630;SDS011;2837;50.990;7.124;2023-02-18T09:56:12;156.50;;;7.50;;
5630;SDS011;2837;50.990;7.124;2023-02-18T09:58:42;157.37;;;7.00;;
5630;SDS011;2837;50.990;7.124;2023-02-18T10:01:12;152.67;;;6.87;;
5630;SDS011;2837;50.990;7.124;2023-02-18T10:03:45;154.33;;;7.33;;
5630;SDS011;2837;50.990;7.124;2023-02-18T10:06:28;154.27;;;6.87;;
5630;SDS011;2837;50.990;7.124;2023-02-18T10:08:58;154.57;;;6.53;;
5630;SDS011;2837;50.990;7.124;2023-02-18T10:11:40;155.67;;;7.40;;
5630;SDS011;2837;50.990;7.124;2023-02-18T10:14:10;155.83;;;7.57;;
5630;SDS011;2837;50.990;7.124;2023-02-18T10:16:38;154.57;;;6.50;;
5630;SDS011;2837;50.990;7.124;2023-02-18T10:19:08;151.07;;;6.03;;
5630;SDS011;2837;50.990;7.124;2023-02-18T10:21:36;152.67;;;7.03;;
5630;SDS011;2837;50.990;7.124;2023-02-18T10:24:09;153.87;;;7.00;;
5630;SDS011;2837;50.990;7.124;2023-02-18T10:26:52;155.20;;;7.40;;
5630;SDS011;2837;50.990;7.124;2023-02-18T10:29:18;155.13;;;6.90;;
5630;SDS011;2837;50.990;7.124;2023-02-18T10:31:48;154.73;;;6.90;;
5630;SDS011;2837;50.990;7.124;2023-02-18T10:35:03;155.03;;;7.20;;
5630;SDS011;2837;50.990;7.124;2023-02-18T10:45:39;156.07;;;7.63;;
5630;SDS011;2837;50.990;7.124;2023-02-18T10:48:17;154.17;;;7.50;;
5630;SDS011;2837;50.990;7.124;2023-02-18T10:50:47;154.97;;;7.20;;
5630;SDS011;2837;50.990;7.124;2023-02-18T10:55:45;155.60;;;7.70;;
5630;SDS011;2837;50.990;7.124;2023-02-18T10:58:23;154.30;;;7.33;;
5630;SDS011;2837;50.990;7.124;2023-02-18T11:01:03;153.13;;;7.20;;
5630;SDS011;2837;50.990;7.124;2023-02-18T11:03:40;152.87;;;6.83;;
5630;SDS011;2837;50.990;7.124;2023-02-18T11:06:16;153.37;;;7.17;;
5630;SDS011;2837;50.990;7.124;2023-02-18T11:08:56;157.57;;;7.00;;
5630;SDS011;2837;50.990;7.124;2023-02-18T11:11:28;152.20;;;6.60;;
5630;SDS011;2837;50.990;7.124;2023-02-18T11:13:57;154.47;;;7.07;;
5630;SDS011;2837;50.990;7.124;2023-02-18T11:19:03;152.07;;;6.50;;
5630;SDS011;2837;50.990;7.124;2023-02-18T11:21:31;153.60;;;7.50;;
5630;SDS011;2837;50.990;7.124;2023-02-18T11:24:11;153.60;;;7.67;;
5630;SDS011;2837;50.990;7.124;2023-02-18T11:26:40;153.43;;;7.30;;
5630;SDS011;2837;50.990;7.124;2023-02-18T11:29:13;153.33;;;7.50;;
5630;SDS011;2837;50.990;7.124;2023-02-18T11:31:47;154.57;;;7.93;;
5630;SDS011;2837;50.990;7.124;2023-02-18T11:34:20;157.57;;;7.17;;
5630;SDS011;2837;50.990;7.124;2023-02-18T11:36:48;152.53;;;7.17;;
5630;SDS011;2837;50.990;7.124;2023-02-18T11:41:45;154.57;;;7.10;;
5630;SDS011;2837;50.990;7.124;2023-02-18T11:44:20;154.87;;;7.73;;
5630;SDS011;2837;50.990;7.124;2023-02-18T11:47:03;153.90;;;7.57;;
5630;SDS011;2837;50.990;7.124;2023-02-18T11:49:30;153.87;;;7.17;;
5630;SDS011;2837;50.990;7.124;2023-02-18T11:52:17;153.67;;;7.37;;
5630;SDS011;2837;50.990;7.124;2023-02-18T11:55:02;154.70;;;6.70;;
5630;SDS011;2837;50.990;7.124;2023-02-18T11:57:37;153.87;;;7.20;;
5630;SDS011;2837;50.990;7.124;2023-02-18T12:00:14;153.27;;;7.43;;
5630;SDS011;2837;50.990;7.124;2023-02-18T12:02:48;154.90;;;7.00;;
5630;SDS011;2837;50.990;7.124;2023-02-18T12:07:57;153.43;;;7.10;;
5630;SDS011;2837;50.990;7.124;2023-02-18T12:10:29;154.07;;;7.33;;
5630;SDS011;2837;50.990;7.124;2023-02-18T12:21:17;153.47;;;6.90;;
5630;SDS011;2837;50.990;7.124;2023-02-18T12:24:13;153.87;;;6.97;;
5630;SDS011;2837;50.990;7.124;2023-02-18T12:27:11;153.17;;;6.90;;
5630;SDS011;2837;50.990;7.124;2023-02-18T12:30:34;155.13;;;6.50;;
5630;SDS011;2837;50.990;7.124;2023-02-18T12:41:21;153.07;;;6.80;;
5630;SDS011;2837;50.990;7.124;2023-02-18T12:54:46;154.77;;;7.03;;
5630;SDS011;2837;50.990;7.124;2023-02-18T12:57:19;152.77;;;6.77;;
5630;SDS011;2837;50.990;7.124;2023-02-18T13:05:06;153.27;;;7.07;;
5630;SDS011;2837;50.990;7.124;2023-02-18T13:11:00;152.90;;;6.90;;
5630;SDS011;2837;50.990;7.124;2023-02-18T13:13:44;153.70;;;7.27;;
5630;SDS011;2837;50.990;7.124;2023-02-18T13:16:21;152.57;;;6.27;;
5630;SDS011;2837;50.990;7.124;2023-02-18T13:21:35;152.90;;;6.77;;
5630;SDS011;2837;50.990;7.124;2023-02-18T13:24:05;152.57;;;6.40;;
5630;SDS011;2837;50.990;7.124;2023-02-18T13:26:34;153.10;;;6.97;;
5630;SDS011;2837;50.990;7.124;2023-02-18T13:34:27;153.57;;;6.50;;
5630;SDS011;2837;50.990;7.124;2023-02-18T13:37:06;156.07;;;7.03;;
5630;SDS011;2837;50.990;7.124;2023-02-18T13:39:58;152.63;;;6.80;;
5630;SDS011;2837;50.990;7.124;2023-02-18T13:42:31;152.60;;;6.50;;
5630;SDS011;2837;50.990;7.124;2023-02-18T13:52:50;153.27;;;6.97;;
5630;SDS011;2837;50.990;7.124;2023-02-18T13:58:13;152.57;;;6.60;;
5630;SDS011;2837;50.990;7.124;2023-02-18T14:00:46;152.47;;;6.40;;
5630;SDS011;2837;50.990;7.124;2023-02-18T14:05:57;154.80;;;6.30;;
5630;SDS011;2837;50.990;7.124;2023-02-18T14:08:34;153.67;;;6.80;;
5630;SDS011;2837;50.990;7.124;2023-02-18T14:16:19;152.20;;;6.53;;
5630;SDS011;2837;50.990;7.124;2023-02-18T14:23:37;153.13;;;7.07;;
5630;SDS011;2837;50.990;7.124;2023-02-18T14:26:05;153.40;;;6.80;;
5630;SDS011;2837;50.990;7.124;2023-02-18T14:28:39;152.47;;;6.30;;
5630;SDS011;2837;50.990;7.124;2023-02-18T14:39:36;152.97;;;6.97;;
5630;SDS011;2837;50.990;7.124;2023-02-18T14:42:53;152.30;;;6.53;;
5630;SDS011;2837;50.990;7.124;2023-02-18T14:45:39;153.87;;;6.67;;
5630;SDS011;2837;50.990;7.124;2023-02-18T14:51:14;154.07;;;6.73;;
5630;SDS011;2837;50.990;7.124;2023-02-18T14:53:47;158.13;;;6.80;;
5630;SDS011;2837;50.990;7.124;2023-02-18T14:56:15;152.30;;;6.33;;
5630;SDS011;2837;50.990;7.124;2023-02-18T14:58:44;152.77;;;6.70;;
5630;SDS011;2837;50.990;7.124;2023-02-18T15:01:15;155.57;;;6.60;;
5630;SDS011;2837;50.990;7.124;2023-02-18T15:03:50;153.97;;;7.53;;
5630;SDS011;2837;50.990;7.124;2023-02-18T15:08:52;152.27;;;6.47;;
5630;SDS011;2837;50.990;7.124;2023-02-18T15:11:18;153.87;;;6.93;;
5630;SDS011;2837;50.990;7.124;2023-02-18T15:13:46;152.70;;;6.40;;
5630;SDS011;2837;50.990;7.124;2023-02-18T15:16:21;153.27;;;7.37;;
5630;SDS011;2837;50.990;7.124;2023-02-18T15:18:52;152.87;;;6.27;;
5630;SDS011;2837;50.990;7.124;2023-02-18T15:21:28;153.77;;;6.67;;
5630;SDS011;2837;50.990;7.124;2023-02-18T15:24:04;152.47;;;6.40;;
5630;SDS011;2837;50.990;7.124;2023-02-18T15:26:42;152.63;;;6.47;;
5630;SDS011;2837;50.990;7.124;2023-02-18T15:29:23;152.17;;;6.60;;
5630;SDS011;2837;50.990;7.124;2023-02-18T15:31:50;152.67;;;6.23;;
5630;SDS011;2837;50.990;7.124;2023-02-18T15:34:24;152.97;;;7.00;;
5630;SDS011;2837;50.990;7.124;2023-02-18T15:36:51;152.80;;;6.70;;
5630;SDS011;2837;50.990;7.124;2023-02-18T15:39:17;154.27;;;6.83;;
5630;SDS011;2837;50.990;7.124;2023-02-18T15:41:42;154.17;;;6.93;;
5630;SDS011;2837;50.990;7.124;2023-02-18T15:44:08;152.87;;;7.03;;
5630;SDS011;2837;50.990;7.124;2023-02-18T15:46:46;152.67;;;6.50;;
5630;SDS011;2837;50.990;7.124;2023-02-18T15:49:13;154.80;;;6.70;;
5630;SDS011;2837;50.990;7.124;2023-02-18T15:51:40;154.00;;;6.90;;
5630;SDS011;2837;50.990;7.124;2023-02-18T15:54:11;153.10;;;6.60;;
5630;SDS011;2837;50.990;7.124;2023-02-18T15:56:39;154.20;;;6.60;;
5630;SDS011;2837;50.990;7.124;2023-02-18T16:01:41;155.27;;;7.33;;
5630;SDS011;2837;50.990;7.124;2023-02-18T16:04:10;153.20;;;6.90;;
5630;SDS011;2837;50.990;7.124;2023-02-18T16:06:38;152.83;;;6.97;;
5630;SDS011;2837;50.990;7.124;2023-02-18T16:09:14;153.07;;;6.53;;
5630;SDS011;2837;50.990;7.124;2023-02-18T16:11:44;153.50;;;6.87;;
5630;SDS011;2837;50.990;7.124;2023-02-18T16:14:34;154.53;;;6.93;;
5630;SDS011;2837;50.990;7.124;2023-02-18T16:17:13;153.37;;;6.50;;
5630;SDS011;2837;50.990;7.124;2023-02-18T16:22:24;152.67;;;6.60;;
5630;SDS011;2837;50.990;7.124;2023-02-18T16:30:23;152.87;;;6.70;;
5630;SDS011;2837;50.990;7.124;2023-02-18T16:32:50;152.83;;;6.97;;
5630;SDS011;2837;50.990;7.124;2023-02-18T16:35:16;152.20;;;6.47;;
5630;SDS011;2837;50.990;7.124;2023-02-18T16:37:42;153.07;;;7.07;;
5630;SDS011;2837;50.990;7.124;2023-02-18T16:42:47;152.37;;;6.87;;
5630;SDS011;2837;50.990;7.124;2023-02-18T16:45:13;152.87;;;7.00;;
5630;SDS011;2837;50.990;7.124;2023-02-18T16:47:39;153.20;;;6.93;;
5630;SDS011;2837;50.990;7.124;2023-02-18T16:50:05;154.47;;;7.23;;
5630;SDS011;2837;50.990;7.124;2023-02-18T16:52:37;152.93;;;7.03;;
5630;SDS011;2837;50.990;7.124;2023-02-18T16:55:25;153.17;;;7.20;;
5630;SDS011;2837;50.990;7.124;2023-02-18T16:57:53;153.17;;;6.90;;
5630;SDS011;2837;50.990;7.124;2023-02-18T17:00:19;152.57;;;7.23;;
5630;SDS011;2837;50.990;7.124;2023-02-18T17:02:50;153.17;;;7.30;;
5630;SDS011;2837;50.990;7.124;2023-02-18T17:05:19;153.50;;;6.77;;
5630;SDS011;2837;50.990;7.124;2023-02-18T17:07:49;152.13;;;6.60;;
5630;SDS011;2837;50.990;7.124;2023-02-18T17:10:15;154.10;;;7.23;;
5630;SDS011;2837;50.990;7.124;2023-02-18T17:12:40;156.40;;;7.80;;
5630;SDS011;2837;50.990;7.124;2023-02-18T17:15:12;153.33;;;6.80;;
5630;SDS011;2837;50.990;7.124;2023-02-18T17:17:47;153.17;;;7.37;;
5630;SDS011;2837;50.990;7.124;2023-02-18T17:20:12;153.87;;;7.43;;
5630;SDS011;2837;50.990;7.124;2023-02-18T17:22:38;153.60;;;7.50;;
5630;SDS011;2837;50.990;7.124;2023-02-18T17:25:10;154.20;;;7.67;;
5630;SDS011;2837;50.990;7.124;2023-02-18T17:27:39;153.60;;;7.33;;
5630;SDS011;2837;50.990;7.124;2023-02-18T17:30:04;153.20;;;7.17;;
5630;SDS011;2837;50.990;7.124;2023-02-18T17:32:30;152.90;;;6.90;;
5630;SDS011;2837;50.990;7.124;2023-02-18T17:34:56;154.33;;;7.30;;
5630;SDS011;2837;50.990;7.124;2023-02-18T17:37:21;152.83;;;7.07;;
5630;SDS011;2837;50.990;7.124;2023-02-18T17:39:47;153.60;;;7.47;;
5630;SDS011;2837;50.990;7.124;2023-02-18T17:42:13;152.03;;;6.77;;
5630;SDS011;2837;50.990;7.124;2023-02-18T17:44:39;153.03;;;7.33;;
5630;SDS011;2837;50.990;7.124;2023-02-18T17:47:05;154.07;;;7.80;;
5630;SDS011;2837;50.990;7.124;2023-02-18T17:49:30;154.30;;;7.90;;
5630;SDS011;2837;50.990;7.124;2023-02-18T17:51:56;153.00;;;7.50;;
5630;SDS011;2837;50.990;7.124;2023-02-18T17:54:21;153.70;;;7.60;;
5630;SDS011;2837;50.990;7.124;2023-02-18T17:56:48;153.67;;;7.53;;
5630;SDS011;2837;50.990;7.124;2023-02-18T17:59:14;155.90;;;7.93;;
5630;SDS011;2837;50.990;7.124;2023-02-18T18:01:40;154.83;;;8.43;;
5630;SDS011;2837;50.990;7.124;2023-02-18T18:04:11;155.33;;;7.50;;
5630;SDS011;2837;50.990;7.124;2023-02-18T18:06:39;156.07;;;8.00;;
5630;SDS011;2837;50.990;7.124;2023-02-18T18:09:04;154.47;;;8.33;;
5630;SDS011;2837;50.990;7.124;2023-02-18T18:11:30;156.53;;;7.80;;
5630;SDS011;2837;50.990;7.124;2023-02-18T18:13:57;154.47;;;8.00;;
5630;SDS011;2837;50.990;7.124;2023-02-18T18:16:23;156.30;;;7.90;;
5630;SDS011;2837;50.990;7.124;2023-02-18T18:18:49;154.57;;;7.77;;
5630;SDS011;2837;50.990;7.124;2023-02-18T18:21:48;154.50;;;7.97;;
5630;SDS011;2837;50.990;7.124;2023-02-18T18:24:08;154.20;;;7.80;;
5630;SDS011;2837;50.990;7.124;2023-02-18T18:26:35;153.17;;;7.50;;
5630;SDS011;2837;50.990;7.124;2023-02-18T18:29:01;156.00;;;8.13;;
5630;SDS011;2837;50.990;7.124;2023-02-18T18:31:26;154.07;;;8.13;;
5630;SDS011;2837;50.990;7.124;2023-02-18T18:33:52;155.37;;;8.30;;
5630;SDS011;2837;50.990;7.124;2023-02-18T18:36:18;153.97;;;7.90;;
5630;SDS011;2837;50.990;7.124;2023-02-18T18:38:45;160.33;;;8.37;;
5630;SDS011;2837;50.990;7.124;2023-02-18T18:41:11;158.17;;;8.87;;
5630;SDS011;2837;50.990;7.124;2023-02-18T18:43:39;155.73;;;9.10;;
5630;SDS011;2837;50.990;7.124;2023-02-18T18:46:05;156.77;;;8.87;;
5630;SDS011;2837;50.990;7.124;2023-02-18T18:48:30;155.23;;;8.87;;
5630;SDS011;2837;50.990;7.124;2023-02-18T18:50:56;158.97;;;10.67;;
5630;SDS011;2837;50.990;7.124;2023-02-18T18:53:27;158.27;;;11.33;;
5630;SDS011;2837;50.990;7.124;2023-02-18T18:55:56;169.70;;;16.50;;
5630;SDS011;2837;50.990;7.124;2023-02-18T18:58:22;159.03;;;11.40;;
5630;SDS011;2837;50.990;7.124;2023-02-18T19:00:49;156.03;;;9.80;;
5630;SDS011;2837;50.990;7.124;2023-02-18T19:03:21;155.77;;;9.50;;
5630;SDS011;2837;50.990;7.124;2023-02-18T19:05:47;155.73;;;8.67;;
5630;SDS011;2837;50.990;7.124;2023-02-18T19:08:14;156.27;;;8.93;;
5630;SDS011;2837;50.990;7.124;2023-02-18T19:10:45;154.33;;;8.60;;
5630;SDS011;2837;50.990;7.124;2023-02-18T19:13:19;155.67;;;9.10;;
5630;SDS011;2837;50.990;7.124;2023-02-18T19:15:47;155.27;;;8.90;;
5630;SDS011;2837;50.990;7.124;2023-02-18T19:18:15;155.33;;;8.87;;
5630;SDS011;2837;50.990;7.124;2023-02-18T19:20:42;156.40;;;9.33;;
5630;SDS011;2837;50.990;7.124;2023-02-18T19:23:08;156.00;;;9.87;;
5630;SDS011;2837;50.990;7.124;2023-02-18T19:25:34;155.27;;;9.03;;
5630;SDS011;2837;50.990;7.124;2023-02-18T19:28:00;158.97;;;11.30;;
5630;SDS011;2837;50.990;7.124;2023-02-18T19:30:28;156.17;;;9.50;;
5630;SDS011;2837;50.990;7.124;2023-02-18T19:32:56;156.57;;;9.83;;
5630;SDS011;2837;50.990;7.124;2023-02-18T19:35:24;155.43;;;9.00;;
5630;SDS011;2837;50.990;7.124;2023-02-18T19:37:50;154.50;;;8.50;;
5630;SDS011;2837;50.990;7.124;2023-02-18T19:40:17;157.50;;;9.20;;
5630;SDS011;2837;50.990;7.124;2023-02-18T19:42:44;155.13;;;8.90;;
5630;SDS011;2837;50.990;7.124;2023-02-18T19:45:10;156.50;;;8.90;;
5630;SDS011;2837;50.990;7.124;2023-02-18T19:47:36;155.77;;;8.67;;
5630;SDS011;2837;50.990;7.124;2023-02-18T19:50:03;155.87;;;8.97;;
5630;SDS011;2837;50.990;7.124;2023-02-18T19:52:30;155.70;;;8.80;;
5630;SDS011;2837;50.990;7.124;2023-02-18T19:54:55;156.23;;;8.90;;
5630;SDS011;2837;50.990;7.124;2023-02-18T19:57:21;154.77;;;8.60;;
5630;SDS011;2837;50.990;7.124;2023-02-18T19:59:47;155.70;;;8.63;;
5630;SDS011;2837;50.990;7.124;2023-02-18T20:02:13;154.70;;;8.70;;
5630;SDS011;2837;50.990;7.124;2023-02-18T20:04:40;153.77;;;8.10;;
5630;SDS011;2837;50.990;7.124;2023-02-18T20:07:06;156.20;;;8.90;;
5630;SDS011;2837;50.990;7.124;2023-02-18T20:09:32;154.10;;;7.93;;
5630;SDS011;2837;50.990;7.124;2023-02-18T20:11:57;154.50;;;8.50;;
5630;SDS011;2837;50.990;7.124;2023-02-18T20:14:23;157.57;;;9.13;;
5630;SDS011;2837;50.990;7.124;2023-02-18T20:16:51;154.80;;;8.13;;
5630;SDS011;2837;50.990;7.124;2023-02-18T20:19:17;156.10;;;8.53;;
5630;SDS011;2837;50.990;7.124;2023-02-18T20:21:44;154.73;;;8.40;;
5630;SDS011;2837;50.990;7.124;2023-02-18T20:24:10;155.27;;;9.00;;
5630;SDS011;2837;50.990;7.124;2023-02-18T20:26:35;155.57;;;8.50;;
5630;SDS011;2837;50.990;7.124;2023-02-18T20:29:01;155.13;;;8.63;;
5630;SDS011;2837;50.990;7.124;2023-02-18T20:31:27;155.40;;;8.40;;
5630;SDS011;2837;50.990;7.124;2023-02-18T20:33:54;154.57;;;8.37;;
5630;SDS011;2837;50.990;7.124;2023-02-18T20:36:21;155.33;;;7.87;;
5630;SDS011;2837;50.990;7.124;2023-02-18T20:38:47;154.17;;;8.20;;
5630;SDS011;2837;50.990;7.124;2023-02-18T20:41:16;154.17;;;8.23;;
5630;SDS011;2837;50.990;7.124;2023-02-18T20:43:43;153.57;;;7.57;;
5630;SDS011;2837;50.990;7.124;2023-02-18T20:46:13;155.27;;;8.80;;
5630;SDS011;2837;50.990;7.124;2023-02-18T20:48:41;153.87;;;7.90;;
5630;SDS011;2837;50.990;7.124;2023-02-18T20:51:11;154.43;;;7.90;;
5630;SDS011;2837;50.990;7.124;2023-02-18T20:53:38;153.87;;;7.97;;
5630;SDS011;2837;50.990;7.124;2023-02-18T20:56:05;153.70;;;7.70;;
5630;SDS011;2837;50.990;7.124;2023-02-18T20:58:32;154.17;;;8.20;;
5630;SDS011;2837;50.990;7.124;2023-02-18T21:00:58;154.67;;;8.50;;
5630;SDS011;2837;50.990;7.124;2023-02-18T21:03:24;153.57;;;7.80;;
5630;SDS011;2837;50.990;7.124;2023-02-18T21:05:58;153.60;;;7.80;;
5630;SDS011;2837;50.990;7.124;2023-02-18T21:08:29;153.77;;;7.97;;
5630;SDS011;2837;50.990;7.124;2023-02-18T21:10:55;155.53;;;7.90;;
5630;SDS011;2837;50.990;7.124;2023-02-18T21:13:22;153.60;;;7.50;;
5630;SDS011;2837;50.990;7.124;2023-02-18T21:15:49;153.83;;;7.57;;
5630;SDS011;2837;50.990;7.124;2023-02-18T21:18:15;154.67;;;7.70;;
5630;SDS011;2837;50.990;7.124;2023-02-18T21:20:41;154.43;;;8.37;;
5630;SDS011;2837;50.990;7.124;2023-02-18T21:23:08;154.70;;;8.23;;
5630;SDS011;2837;50.990;7.124;2023-02-18T21:25:34;154.30;;;8.00;;
5630;SDS011;2837;50.990;7.124;2023-02-18T21:28:01;154.57;;;7.73;;
5630;SDS011;2837;50.990;7.124;2023-02-18T21:30:27;153.63;;;7.67;;
5630;SDS011;2837;50.990;7.124;2023-02-18T21:32:54;154.37;;;8.57;;
5630;SDS011;2837;50.990;7.124;2023-02-18T21:35:20;155.07;;;7.80;;
5630;SDS011;2837;50.990;7.124;2023-02-18T21:37:45;153.00;;;7.23;;
5630;SDS011;2837;50.990;7.124;2023-02-18T21:40:11;153.97;;;8.00;;
5630;SDS011;2837;50.990;7.124;2023-02-18T21:42:37;155.07;;;7.47;;
5630;SDS011;2837;50.990;7.124;2023-02-18T21:45:03;153.97;;;7.70;;
5630;SDS011;2837;50.990;7.124;2023-02-18T21:47:29;154.27;;;7.60;;
5630;SDS011;2837;50.990;7.124;2023-02-18T21:49:54;153.60;;;8.00;;
5630;SDS011;2837;50.990;7.124;2023-02-18T21:52:20;152.77;;;7.70;;
5630;SDS011;2837;50.990;7.124;2023-02-18T21:54:45;155.30;;;7.77;;
5630;SDS011;2837;50.990;7.124;2023-02-18T21:59:39;153.30;;;7.50;;
